createdAt,value
2019-06-27T00:00:42.959Z,18.52
2019-06-27T00:01:42.903Z,18.52
2019-06-27T00:02:42.950Z,18.53
2019-06-27T00:03:42.889Z,18.40
2019-06-27T00:04:42.878Z,18.52
2019-06-27T00:05:42.872Z,18.41
2019-06-27T00:06:42.867Z,18.40
2019-06-27T00:07:42.836Z,18.41
2019-06-27T00:08:42.899Z,18.34
2019-06-27T00:09:42.847Z,18.34
2019-06-27T00:10:42.822Z,18.28
2019-06-27T00:11:42.801Z,18.29
2019-06-27T00:12:42.804Z,18.25
2019-06-27T00:13:42.783Z,18.15
2019-06-27T00:14:42.782Z,18.00
2019-06-27T00:15:42.767Z,18.05
2019-06-27T00:16:42.768Z,18.01
2019-06-27T00:17:42.773Z,17.94
2019-06-27T00:18:42.712Z,17.90
2019-06-27T00:19:42.742Z,17.83
2019-06-27T00:20:42.725Z,17.85
2019-06-27T00:21:42.678Z,17.83
2019-06-27T00:22:42.681Z,17.87
2019-06-27T00:23:42.700Z,17.72
2019-06-27T00:24:42.644Z,17.86
2019-06-27T00:25:42.635Z,17.83
2019-06-27T00:26:56.214Z,17.76
2019-06-27T00:27:43.671Z,17.78
2019-06-27T00:28:42.635Z,17.74
2019-06-27T00:29:42.611Z,17.65
2019-06-27T00:30:42.599Z,17.68
2019-06-27T00:31:42.585Z,17.60
2019-06-27T00:32:42.586Z,17.72
2019-06-27T00:33:42.588Z,17.70
2019-06-27T00:34:42.539Z,17.72
2019-06-27T00:35:42.547Z,17.71
2019-06-27T00:36:42.520Z,17.74
2019-06-27T00:37:42.562Z,17.68
2019-06-27T00:38:42.510Z,17.72
2019-06-27T00:39:42.520Z,17.79
2019-06-27T00:40:42.486Z,17.72
2019-06-27T00:41:42.475Z,17.78
2019-06-27T00:42:42.465Z,17.71
2019-06-27T00:43:42.470Z,17.65
2019-06-27T00:44:42.433Z,17.71
2019-06-27T00:45:42.463Z,17.65
2019-06-27T00:46:42.432Z,17.56
2019-06-27T00:47:42.411Z,17.60
2019-06-27T00:48:42.433Z,17.68
2019-06-27T00:49:42.387Z,17.65
2019-06-27T00:50:42.399Z,17.74
2019-06-27T00:51:45.219Z,17.63
2019-06-27T00:52:42.357Z,17.68
2019-06-27T00:53:42.352Z,17.65
2019-06-27T00:54:42.354Z,17.64
2019-06-27T00:55:42.371Z,17.52
2019-06-27T00:56:42.314Z,17.54
2019-06-27T00:57:42.305Z,17.48
2019-06-27T00:58:42.294Z,17.31
2019-06-27T00:59:42.297Z,17.33
2019-06-27T01:00:42.262Z,17.44
2019-06-27T01:01:42.270Z,17.38
2019-06-27T01:02:42.239Z,17.30
2019-06-27T01:03:42.239Z,17.34
2019-06-27T01:04:42.328Z,17.23
2019-06-27T01:05:42.227Z,17.30
2019-06-27T01:06:42.198Z,17.26
2019-06-27T01:07:42.196Z,17.23
2019-06-27T01:08:42.184Z,17.23
2019-06-27T01:09:42.163Z,17.19
2019-06-27T01:10:42.189Z,17.14
2019-06-27T01:11:42.174Z,17.19
2019-06-27T01:12:42.146Z,17.15
2019-06-27T01:13:42.141Z,17.12
2019-06-27T01:14:42.109Z,17.04
2019-06-27T01:15:42.107Z,17.04
2019-06-27T01:16:42.109Z,16.97
2019-06-27T01:17:42.082Z,16.99
2019-06-27T01:18:42.077Z,16.91
2019-06-27T01:19:42.073Z,16.91
2019-06-27T01:20:42.090Z,16.94
2019-06-27T01:21:42.034Z,16.89
2019-06-27T01:22:42.050Z,16.96
2019-06-27T01:23:45.079Z,16.93
2019-06-27T01:24:42.018Z,17.01
2019-06-27T01:25:42.205Z,16.91
2019-06-27T01:26:41.984Z,16.91
2019-06-27T01:27:41.983Z,16.93
2019-06-27T01:28:41.980Z,16.94
2019-06-27T01:29:41.954Z,16.94
2019-06-27T01:30:41.965Z,16.94
2019-06-27T01:31:41.943Z,16.94
2019-06-27T01:32:41.917Z,16.93
2019-06-27T01:33:41.915Z,17.04
2019-06-27T01:34:41.933Z,17.05
2019-06-27T01:35:41.906Z,17.08
2019-06-27T01:36:41.881Z,17.09
2019-06-27T01:37:41.873Z,17.16
2019-06-27T01:38:41.858Z,17.14
2019-06-27T01:39:41.891Z,17.15
2019-06-27T01:40:41.864Z,17.09
2019-06-27T01:41:41.844Z,17.14
2019-06-27T01:42:41.812Z,17.11
2019-06-27T01:43:41.803Z,17.08
2019-06-27T01:44:41.795Z,17.09
2019-06-27T01:45:41.776Z,17.09
2019-06-27T01:46:41.793Z,17.04
2019-06-27T01:47:41.793Z,16.93
2019-06-27T01:48:41.751Z,16.94
2019-06-27T01:49:41.750Z,17.01
2019-06-27T01:50:41.737Z,16.97
2019-06-27T01:51:41.726Z,16.96
2019-06-27T01:52:41.737Z,16.91
2019-06-27T01:53:41.700Z,17.01
2019-06-27T01:54:41.684Z,16.97
2019-06-27T01:55:41.671Z,16.96
2019-06-27T01:56:41.661Z,16.89
2019-06-27T01:57:46.616Z,16.90
2019-06-27T01:58:42.666Z,16.93
2019-06-27T01:59:41.625Z,16.87
2019-06-27T02:00:41.624Z,16.83
2019-06-27T02:01:41.614Z,16.78
2019-06-27T02:02:41.596Z,16.81
2019-06-27T02:03:41.587Z,16.75
2019-06-27T02:04:41.597Z,16.65
2019-06-27T02:05:41.565Z,16.69
2019-06-27T02:06:41.562Z,16.68
2019-06-27T02:07:41.551Z,16.72
2019-06-27T02:08:41.550Z,16.75
2019-06-27T02:09:41.540Z,16.72
2019-06-27T02:10:41.530Z,16.72
2019-06-27T02:11:41.505Z,16.75
2019-06-27T02:12:41.495Z,16.69
2019-06-27T02:13:41.478Z,16.66
2019-06-27T02:14:41.482Z,16.65
2019-06-27T02:15:41.467Z,16.64
2019-06-27T02:16:41.460Z,16.64
2019-06-27T02:17:41.445Z,16.51
2019-06-27T02:18:41.447Z,16.51
2019-06-27T02:19:41.417Z,16.47
2019-06-27T02:20:41.419Z,16.47
2019-06-27T02:21:41.392Z,16.49
2019-06-27T02:22:41.400Z,16.53
2019-06-27T02:23:41.379Z,16.36
2019-06-27T02:24:41.374Z,16.38
2019-06-27T02:25:41.355Z,16.39
2019-06-27T02:26:41.357Z,16.35
2019-06-27T02:27:41.331Z,16.42
2019-06-27T02:28:41.509Z,16.47
2019-06-27T02:29:41.316Z,16.47
2019-06-27T02:30:41.298Z,16.51
2019-06-27T02:31:41.299Z,16.60
2019-06-27T02:32:41.275Z,16.49
2019-06-27T02:33:41.263Z,16.47
2019-06-27T02:34:41.284Z,16.49
2019-06-27T02:35:41.261Z,16.51
2019-06-27T02:36:41.266Z,16.46
2019-06-27T02:37:41.241Z,16.49
2019-06-27T02:38:41.215Z,16.41
2019-06-27T02:39:41.198Z,16.43
2019-06-27T02:40:41.185Z,16.50
2019-06-27T02:41:41.200Z,16.51
2019-06-27T02:42:41.178Z,16.54
2019-06-27T02:43:41.168Z,16.54
2019-06-27T02:44:41.153Z,16.58
2019-06-27T02:45:41.138Z,16.46
2019-06-27T02:46:41.152Z,16.47
2019-06-27T02:47:41.114Z,16.56
2019-06-27T02:48:41.116Z,16.43
2019-06-27T02:49:41.117Z,16.46
2019-06-27T02:50:41.084Z,16.49
2019-06-27T02:51:41.072Z,16.53
2019-06-27T02:52:41.089Z,16.57
2019-06-27T02:53:41.063Z,16.58
2019-06-27T02:54:41.087Z,16.53
2019-06-27T02:55:41.061Z,16.43
2019-06-27T02:56:41.028Z,16.53
2019-06-27T02:57:41.032Z,16.50
2019-06-27T02:58:41.001Z,16.53
2019-06-27T02:59:40.993Z,16.51
2019-06-27T03:00:40.976Z,16.43
2019-06-27T03:01:40.962Z,16.41
2019-06-27T03:02:40.990Z,16.41
2019-06-27T03:03:40.945Z,16.42
2019-06-27T03:04:40.942Z,16.39
2019-06-27T03:05:40.946Z,16.46
2019-06-27T03:06:40.940Z,16.41
2019-06-27T03:07:40.898Z,16.56
2019-06-27T03:08:40.908Z,16.54
2019-06-27T03:09:40.889Z,16.47
2019-06-27T03:10:41.085Z,16.47
2019-06-27T03:11:40.854Z,16.31
2019-06-27T03:12:40.854Z,16.35
2019-06-27T03:13:40.843Z,16.33
2019-06-27T03:14:40.843Z,16.20
2019-06-27T03:15:40.816Z,16.16
2019-06-27T03:16:40.797Z,16.31
2019-06-27T03:17:40.801Z,16.13
2019-06-27T03:18:40.804Z,16.16
2019-06-27T03:19:40.774Z,16.17
2019-06-27T03:20:40.806Z,16.13
2019-06-27T03:21:40.756Z,16.09
2019-06-27T03:22:40.747Z,16.16
2019-06-27T03:23:40.729Z,16.26
2019-06-27T03:24:40.717Z,16.26
2019-06-27T03:25:40.704Z,16.09
2019-06-27T03:26:40.716Z,16.09
2019-06-27T03:27:40.677Z,16.20
2019-06-27T03:28:52.074Z,16.12
2019-06-27T03:29:41.673Z,16.17
2019-06-27T03:30:40.680Z,16.05
2019-06-27T03:31:40.641Z,16.12
2019-06-27T03:32:40.655Z,16.16
2019-06-27T03:33:40.644Z,16.16
2019-06-27T03:34:40.606Z,16.17
2019-06-27T03:35:40.621Z,16.12
2019-06-27T03:36:40.595Z,16.10
2019-06-27T03:37:40.584Z,16.13
2019-06-27T03:38:40.577Z,16.16
2019-06-27T03:39:40.547Z,16.08
2019-06-27T03:40:40.543Z,16.13
2019-06-27T03:41:40.556Z,16.13
2019-06-27T03:42:40.563Z,16.17
2019-06-27T03:43:40.508Z,16.24
2019-06-27T03:44:40.516Z,16.16
2019-06-27T03:45:40.495Z,16.21
2019-06-27T03:46:40.486Z,16.17
2019-06-27T03:47:40.465Z,16.15
2019-06-27T03:48:40.454Z,16.10
2019-06-27T03:49:40.452Z,16.13
2019-06-27T03:50:40.479Z,16.02
2019-06-27T03:51:40.450Z,16.12
2019-06-27T03:52:40.424Z,16.15
2019-06-27T03:53:40.412Z,16.08
2019-06-27T03:54:40.413Z,16.05
2019-06-27T03:55:40.380Z,16.08
2019-06-27T03:56:40.386Z,16.05
2019-06-27T03:57:44.563Z,16.12
2019-06-27T03:58:41.395Z,16.16
2019-06-27T03:59:40.356Z,16.09
2019-06-27T04:00:40.350Z,16.08
2019-06-27T04:01:40.322Z,16.09
2019-06-27T04:02:40.330Z,16.16
2019-06-27T04:03:42.952Z,16.16
2019-06-27T04:04:40.304Z,16.21
2019-06-27T04:05:40.288Z,16.23
2019-06-27T04:06:40.284Z,16.17
2019-06-27T04:07:40.373Z,16.17
2019-06-27T04:08:40.252Z,16.09
2019-06-27T04:09:40.233Z,16.15
2019-06-27T04:10:40.798Z,16.10
2019-06-27T04:11:40.246Z,16.12
2019-06-27T04:12:40.253Z,16.10
2019-06-27T04:13:41.279Z,15.94
2019-06-27T04:14:40.219Z,15.92
2019-06-27T04:15:40.230Z,15.86
2019-06-27T04:16:40.213Z,15.95
2019-06-27T04:17:40.201Z,15.82
2019-06-27T04:18:40.233Z,15.70
2019-06-27T04:19:40.153Z,15.68
2019-06-27T04:20:40.152Z,15.72
2019-06-27T04:21:40.104Z,15.70
2019-06-27T04:22:40.161Z,15.64
2019-06-27T04:23:40.769Z,15.61
2019-06-27T04:24:40.128Z,15.76
2019-06-27T04:25:40.771Z,15.84
2019-06-27T04:26:40.106Z,15.88
2019-06-27T04:27:40.079Z,15.90
2019-06-27T04:28:40.059Z,15.95
2019-06-27T04:29:40.123Z,15.92
2019-06-27T04:30:40.026Z,15.95
2019-06-27T04:31:40.039Z,16.05
2019-06-27T04:32:40.063Z,16.02
2019-06-27T04:33:40.031Z,16.12
2019-06-27T04:34:40.011Z,15.97
2019-06-27T04:35:39.999Z,16.04
2019-06-27T04:36:39.994Z,16.00
2019-06-27T04:37:40.040Z,15.91
2019-06-27T04:38:40.059Z,15.86
2019-06-27T04:39:39.948Z,15.84
2019-06-27T04:40:39.955Z,15.86
2019-06-27T04:41:39.939Z,15.92
2019-06-27T04:42:39.938Z,15.83
2019-06-27T04:43:40.769Z,15.84
2019-06-27T04:44:40.761Z,15.95
2019-06-27T04:45:39.883Z,15.95
2019-06-27T04:46:39.914Z,15.98
2019-06-27T04:47:39.814Z,15.91
2019-06-27T04:48:39.814Z,15.95
2019-06-27T04:49:39.845Z,16.02
2019-06-27T04:50:39.881Z,16.09
2019-06-27T04:51:39.814Z,16.16
2019-06-27T04:52:39.848Z,16.12
2019-06-27T04:53:39.796Z,16.13
2019-06-27T04:54:39.765Z,16.10
2019-06-27T04:55:39.758Z,16.12
2019-06-27T04:56:39.844Z,16.26
2019-06-27T04:57:39.768Z,16.21
2019-06-27T04:58:39.742Z,16.12
2019-06-27T04:59:52.844Z,16.04
2019-06-27T05:00:40.755Z,15.98
2019-06-27T05:01:39.707Z,16.04
2019-06-27T05:02:39.797Z,16.05
2019-06-27T05:03:39.679Z,16.05
2019-06-27T05:04:39.675Z,16.10
2019-06-27T05:05:39.702Z,16.15
2019-06-27T05:06:39.645Z,16.12
2019-06-27T05:07:39.777Z,16.10
2019-06-27T05:08:39.816Z,16.13
2019-06-27T05:09:39.641Z,16.13
2019-06-27T05:10:39.638Z,16.17
2019-06-27T05:11:39.586Z,16.13
2019-06-27T05:12:39.600Z,16.12
2019-06-27T05:13:39.576Z,16.09
2019-06-27T05:14:39.690Z,16.13
2019-06-27T05:15:39.569Z,16.16
2019-06-27T05:16:39.548Z,16.08
2019-06-27T05:17:39.577Z,16.10
2019-06-27T05:18:39.579Z,16.17
2019-06-27T05:19:39.524Z,16.21
2019-06-27T05:20:39.504Z,16.24
2019-06-27T05:21:39.521Z,16.24
2019-06-27T05:22:39.486Z,16.28
2019-06-27T05:23:39.530Z,16.33
2019-06-27T05:24:39.477Z,16.29
2019-06-27T05:25:39.441Z,16.38
2019-06-27T05:26:39.445Z,16.38
2019-06-27T05:27:39.418Z,16.35
2019-06-27T05:28:39.593Z,16.38
2019-06-27T05:29:39.449Z,16.42
2019-06-27T05:30:40.271Z,16.28
2019-06-27T05:31:39.362Z,16.35
2019-06-27T05:32:39.390Z,16.29
2019-06-27T05:33:39.335Z,16.39
2019-06-27T05:34:39.850Z,16.38
2019-06-27T05:35:39.347Z,16.41
2019-06-27T05:36:39.334Z,16.43
2019-06-27T05:37:39.356Z,16.54
2019-06-27T05:38:40.340Z,16.56
2019-06-27T05:39:39.423Z,16.51
2019-06-27T05:40:39.461Z,16.49
2019-06-27T05:41:39.301Z,16.56
2019-06-27T05:42:39.253Z,16.53
2019-06-27T05:43:39.303Z,16.66
2019-06-27T05:44:39.295Z,16.72
2019-06-27T05:45:39.213Z,16.74
2019-06-27T05:46:39.373Z,16.75
2019-06-27T05:47:39.276Z,16.81
2019-06-27T05:48:39.890Z,16.81
2019-06-27T05:49:39.217Z,16.84
2019-06-27T05:50:39.137Z,16.89
2019-06-27T05:51:39.204Z,16.91
2019-06-27T05:52:40.236Z,16.93
2019-06-27T05:53:39.167Z,16.90
2019-06-27T05:54:39.204Z,16.96
2019-06-27T05:55:39.129Z,16.96
2019-06-27T05:56:39.134Z,16.91
2019-06-27T05:57:39.094Z,17.02
2019-06-27T05:58:39.149Z,17.04
2019-06-27T05:59:39.176Z,17.09
2019-06-27T06:00:39.079Z,17.20
2019-06-27T06:01:39.224Z,17.27
2019-06-27T06:02:39.136Z,17.26
2019-06-27T06:03:39.834Z,17.33
2019-06-27T06:04:39.070Z,17.24
2019-06-27T06:05:39.040Z,17.39
2019-06-27T06:06:39.110Z,17.46
2019-06-27T06:07:39.016Z,17.63
2019-06-27T06:08:38.988Z,17.56
2019-06-27T06:09:39.834Z,17.67
2019-06-27T06:10:39.186Z,17.67
2019-06-27T06:11:38.951Z,17.63
2019-06-27T06:12:39.005Z,17.67
2019-06-27T06:13:38.982Z,17.52
2019-06-27T06:14:38.972Z,17.57
2019-06-27T06:15:38.914Z,17.59
2019-06-27T06:16:38.889Z,17.65
2019-06-27T06:17:38.916Z,17.72
2019-06-27T06:18:38.907Z,17.85
2019-06-27T06:19:38.872Z,17.89
2019-06-27T06:20:38.834Z,18.00
2019-06-27T06:21:38.802Z,18.05
2019-06-27T06:22:39.062Z,18.13
2019-06-27T06:23:38.785Z,18.25
2019-06-27T06:24:38.817Z,18.25
2019-06-27T06:25:38.776Z,18.25
2019-06-27T06:26:38.768Z,18.18
2019-06-27T06:27:38.740Z,18.19
2019-06-27T06:28:38.767Z,18.10
2019-06-27T06:29:38.766Z,18.05
2019-06-27T06:30:44.504Z,18.04
2019-06-27T06:31:39.727Z,17.97
2019-06-27T06:32:38.707Z,17.92
2019-06-27T06:33:38.679Z,17.95
2019-06-27T06:34:38.668Z,17.87
2019-06-27T06:35:38.663Z,17.80
2019-06-27T06:36:38.739Z,17.74
2019-06-27T06:37:38.650Z,17.76
2019-06-27T06:38:38.632Z,17.78
2019-06-27T06:39:38.619Z,17.72
2019-06-27T06:40:38.600Z,17.71
2019-06-27T06:41:38.591Z,17.71
2019-06-27T06:42:38.579Z,17.67
2019-06-27T06:43:38.989Z,17.72
2019-06-27T06:44:38.577Z,17.76
2019-06-27T06:45:38.548Z,17.74
2019-06-27T06:46:38.534Z,17.71
2019-06-27T06:47:38.526Z,17.71
2019-06-27T06:48:38.520Z,17.74
2019-06-27T06:49:38.524Z,17.79
2019-06-27T06:50:38.499Z,17.79
2019-06-27T06:51:38.512Z,17.86
2019-06-27T06:52:38.489Z,17.85
2019-06-27T06:53:38.466Z,17.92
2019-06-27T06:54:38.450Z,18.04
2019-06-27T06:55:38.482Z,17.95
2019-06-27T06:56:38.435Z,17.82
2019-06-27T06:57:38.480Z,17.94
2019-06-27T06:58:38.408Z,18.03
2019-06-27T06:59:38.393Z,18.03
2019-06-27T07:00:38.400Z,18.16
2019-06-27T07:01:38.494Z,18.18
2019-06-27T07:02:38.373Z,18.19
2019-06-27T07:03:38.351Z,18.18
2019-06-27T07:04:38.393Z,18.23
2019-06-27T07:05:38.330Z,18.28
2019-06-27T07:06:38.332Z,18.25
2019-06-27T07:07:38.324Z,18.28
2019-06-27T07:08:38.311Z,18.38
2019-06-27T07:09:38.306Z,18.38
2019-06-27T07:10:38.295Z,18.44
2019-06-27T07:11:38.292Z,18.53
2019-06-27T07:12:38.313Z,18.55
2019-06-27T07:13:38.327Z,18.63
2019-06-27T07:14:38.234Z,18.81
2019-06-27T07:15:38.267Z,19.00
2019-06-27T07:16:38.253Z,19.24
2019-06-27T07:17:38.206Z,19.24
2019-06-27T07:18:38.190Z,19.34
2019-06-27T07:19:38.247Z,19.24
2019-06-27T07:20:38.183Z,18.98
2019-06-27T07:21:38.225Z,18.96
2019-06-27T07:22:38.181Z,18.93
2019-06-27T07:23:38.152Z,18.92
2019-06-27T07:24:38.128Z,19.02
2019-06-27T07:25:38.237Z,19.00
2019-06-27T07:26:38.107Z,19.02
2019-06-27T07:27:38.101Z,19.11
2019-06-27T07:28:38.103Z,19.30
2019-06-27T07:29:38.077Z,19.36
2019-06-27T07:30:38.095Z,19.51
2019-06-27T07:31:38.095Z,19.51
2019-06-27T07:32:38.042Z,19.59
2019-06-27T07:33:38.057Z,19.66
2019-06-27T07:34:38.019Z,19.70
2019-06-27T07:35:38.017Z,19.69
2019-06-27T07:36:38.013Z,19.59
2019-06-27T07:37:37.986Z,19.56
2019-06-27T07:38:37.988Z,19.59
2019-06-27T07:39:37.969Z,19.66
2019-06-27T07:40:37.979Z,19.54
2019-06-27T07:41:37.982Z,19.45
2019-06-27T07:42:37.934Z,19.47
2019-06-27T07:43:37.920Z,19.55
2019-06-27T07:44:37.914Z,19.58
2019-06-27T07:45:37.964Z,19.59
2019-06-27T07:46:37.899Z,19.52
2019-06-27T07:47:37.932Z,19.63
2019-06-27T07:48:37.890Z,19.55
2019-06-27T07:49:37.869Z,19.56
2019-06-27T07:50:37.877Z,19.55
2019-06-27T07:51:37.866Z,19.62
2019-06-27T07:52:37.830Z,19.69
2019-06-27T07:53:37.823Z,19.66
2019-06-27T07:54:37.805Z,19.63
2019-06-27T07:55:37.793Z,19.59
2019-06-27T07:56:37.811Z,19.54
2019-06-27T07:57:37.828Z,19.59
2019-06-27T07:58:37.797Z,19.58
2019-06-27T07:59:37.756Z,19.55
2019-06-27T08:00:37.793Z,19.56
2019-06-27T08:01:37.842Z,19.55
2019-06-27T08:02:37.721Z,19.52
2019-06-27T08:03:37.743Z,19.59
2019-06-27T08:04:37.700Z,19.58
2019-06-27T08:05:37.713Z,19.52
2019-06-27T08:06:37.738Z,19.62
2019-06-27T08:07:37.694Z,19.67
2019-06-27T08:08:37.709Z,19.77
2019-06-27T08:09:37.649Z,19.79
2019-06-27T08:10:37.653Z,19.89
2019-06-27T08:11:37.653Z,19.85
2019-06-27T08:12:37.639Z,19.99
2019-06-27T08:13:37.629Z,20.00
2019-06-27T08:14:37.626Z,20.00
2019-06-27T08:15:37.588Z,20.07
2019-06-27T08:16:37.572Z,20.07
2019-06-27T08:17:37.564Z,20.10
2019-06-27T08:18:37.593Z,20.09
2019-06-27T08:19:37.559Z,20.16
2019-06-27T08:20:37.548Z,20.22
2019-06-27T08:21:37.520Z,20.37
2019-06-27T08:22:37.565Z,20.32
2019-06-27T08:23:41.914Z,20.40
2019-06-27T08:24:37.516Z,20.40
2019-06-27T08:25:37.515Z,20.36
2019-06-27T08:26:37.477Z,20.39
2019-06-27T08:27:37.479Z,20.44
2019-06-27T08:28:37.442Z,20.41
2019-06-27T08:29:37.442Z,20.51
2019-06-27T08:30:37.480Z,20.58
2019-06-27T08:31:50.584Z,20.52
2019-06-27T08:32:38.430Z,20.59
2019-06-27T08:33:37.383Z,20.66
2019-06-27T08:34:37.377Z,20.78
2019-06-27T08:35:37.383Z,20.80
2019-06-27T08:36:37.384Z,20.72
2019-06-27T08:37:37.340Z,20.62
2019-06-27T08:38:37.361Z,20.58
2019-06-27T08:39:37.318Z,20.48
2019-06-27T08:40:37.315Z,20.56
2019-06-27T08:41:37.321Z,20.58
2019-06-27T08:42:37.299Z,20.75
2019-06-27T08:43:37.322Z,20.85
2019-06-27T08:44:37.331Z,20.97
2019-06-27T08:45:37.257Z,21.12
2019-06-27T08:46:37.252Z,21.07
2019-06-27T08:47:37.271Z,21.03
2019-06-27T08:48:37.262Z,21.17
2019-06-27T08:49:37.227Z,21.06
2019-06-27T08:50:37.535Z,21.21
2019-06-27T08:51:37.215Z,21.33
2019-06-27T08:52:37.190Z,21.35
2019-06-27T08:53:37.169Z,21.58
2019-06-27T08:54:37.173Z,21.79
2019-06-27T08:55:37.145Z,21.91
2019-06-27T08:56:37.175Z,22.15
2019-06-27T08:57:37.138Z,22.43
2019-06-27T08:58:37.174Z,22.51
2019-06-27T08:59:37.119Z,22.81
2019-06-27T09:00:37.121Z,23.05
2019-06-27T09:01:37.090Z,23.37
2019-06-27T09:02:37.138Z,23.61
2019-06-27T09:03:37.081Z,23.76
2019-06-27T09:04:37.058Z,23.84
2019-06-27T09:05:37.063Z,24.02
2019-06-27T09:06:37.036Z,24.13
2019-06-27T09:07:37.038Z,24.29
2019-06-27T09:08:37.010Z,24.36
2019-06-27T09:09:37.021Z,24.57
2019-06-27T09:10:37.065Z,24.95
2019-06-27T09:11:38.304Z,24.95
2019-06-27T09:12:36.971Z,24.70
2019-06-27T09:13:36.986Z,24.57
2019-06-27T09:14:36.959Z,24.68
2019-06-27T09:15:36.937Z,25.04
2019-06-27T09:16:36.967Z,25.29
2019-06-27T09:17:36.931Z,25.43
2019-06-27T09:18:36.925Z,25.55
2019-06-27T09:19:36.929Z,25.84
2019-06-27T09:20:36.900Z,25.80
2019-06-27T09:21:36.888Z,25.78
2019-06-27T09:22:36.880Z,25.70
2019-06-27T09:23:37.719Z,25.59
2019-06-27T09:24:36.875Z,25.54
2019-06-27T09:25:36.849Z,25.59
2019-06-27T09:26:36.829Z,25.43
2019-06-27T09:27:36.808Z,25.36
2019-06-27T09:28:36.826Z,25.48
2019-06-27T09:29:36.785Z,25.55
2019-06-27T09:30:36.801Z,25.93
2019-06-27T09:31:36.775Z,25.98
2019-06-27T09:32:36.999Z,26.15
2019-06-27T09:33:36.784Z,26.23
2019-06-27T09:34:36.744Z,26.18
2019-06-27T09:35:36.742Z,26.55
2019-06-27T09:36:36.732Z,26.63
2019-06-27T09:37:36.704Z,26.66
2019-06-27T09:38:36.712Z,27.05
2019-06-27T09:39:36.700Z,27.00
2019-06-27T09:40:36.666Z,26.99
2019-06-27T09:41:36.660Z,27.07
2019-06-27T09:42:36.644Z,27.18
2019-06-27T09:43:36.666Z,27.26
2019-06-27T09:44:36.644Z,27.30
2019-06-27T09:45:36.637Z,27.35
2019-06-27T09:46:36.609Z,27.32
2019-06-27T09:47:36.598Z,27.07
2019-06-27T09:48:36.604Z,27.11
2019-06-27T09:49:36.572Z,27.07
2019-06-27T09:50:36.580Z,27.25
2019-06-27T09:51:36.571Z,27.15
2019-06-27T09:52:36.598Z,27.07
2019-06-27T09:53:36.591Z,27.03
2019-06-27T09:54:36.517Z,27.26
2019-06-27T09:55:36.505Z,27.45
2019-06-27T09:56:36.521Z,27.64
2019-06-27T09:57:36.483Z,27.58
2019-06-27T09:58:36.528Z,27.49
2019-06-27T09:59:36.495Z,27.59
2019-06-27T10:00:36.498Z,27.21
2019-06-27T10:01:36.443Z,27.00
2019-06-27T10:02:41.902Z,26.89
2019-06-27T10:03:37.420Z,27.25
2019-06-27T10:04:36.507Z,27.48
2019-06-27T10:05:36.412Z,27.48
2019-06-27T10:06:36.388Z,27.55
2019-06-27T10:07:36.377Z,27.64
2019-06-27T10:08:36.363Z,27.90
2019-06-27T10:09:36.380Z,27.93
2019-06-27T10:10:36.352Z,27.71
2019-06-27T10:11:36.388Z,27.52
2019-06-27T10:12:42.325Z,27.42
2019-06-27T10:13:37.324Z,27.22
2019-06-27T10:14:36.645Z,27.11
2019-06-27T10:15:36.303Z,27.05
2019-06-27T10:16:36.329Z,27.22
2019-06-27T10:17:36.313Z,27.30
2019-06-27T10:18:36.330Z,27.40
2019-06-27T10:19:36.282Z,27.64
2019-06-27T10:20:36.300Z,27.78
2019-06-27T10:21:36.259Z,27.82
2019-06-27T10:22:36.268Z,27.85
2019-06-27T10:23:36.205Z,27.47
2019-06-27T10:24:36.277Z,27.60
2019-06-27T10:25:38.242Z,27.83
2019-06-27T10:26:36.191Z,27.95
2019-06-27T10:27:36.237Z,27.96
2019-06-27T10:28:36.174Z,28.29
2019-06-27T10:29:36.147Z,28.70
2019-06-27T10:30:36.155Z,28.93
2019-06-27T10:31:36.122Z,28.89
2019-06-27T10:32:36.158Z,28.97
2019-06-27T10:33:36.169Z,28.44
2019-06-27T10:34:36.119Z,28.12
2019-06-27T10:35:36.195Z,28.07
2019-06-27T10:36:38.449Z,28.35
2019-06-27T10:37:36.057Z,28.66
2019-06-27T10:38:36.048Z,28.81
2019-06-27T10:39:36.102Z,28.91
2019-06-27T10:40:36.043Z,28.94
2019-06-27T10:41:36.052Z,28.93
2019-06-27T10:42:36.809Z,28.91
2019-06-27T10:43:35.997Z,29.04
2019-06-27T10:44:36.002Z,29.24
2019-06-27T10:45:36.027Z,29.31
2019-06-27T10:46:36.038Z,29.44
2019-06-27T10:47:36.010Z,29.60
2019-06-27T10:48:35.940Z,29.66
2019-06-27T10:49:35.931Z,29.59
2019-06-27T10:50:35.947Z,29.81
2019-06-27T10:51:35.944Z,29.72
2019-06-27T10:52:35.908Z,29.53
2019-06-27T10:53:35.935Z,29.59
2019-06-27T10:54:35.903Z,29.71
2019-06-27T10:55:35.899Z,29.69
2019-06-27T10:56:39.742Z,29.65
2019-06-27T10:57:35.859Z,29.24
2019-06-27T10:58:35.929Z,29.29
2019-06-27T10:59:35.862Z,29.34
2019-06-27T11:00:35.829Z,29.39
2019-06-27T11:01:35.820Z,29.68
2019-06-27T11:02:35.886Z,29.76
2019-06-27T11:03:38.411Z,29.91
2019-06-27T11:04:35.774Z,29.73
2019-06-27T11:05:35.769Z,29.42
2019-06-27T11:06:35.766Z,29.14
2019-06-27T11:07:35.761Z,29.08
2019-06-27T11:08:35.800Z,29.27
2019-06-27T11:09:35.745Z,29.34
2019-06-27T11:10:35.715Z,29.54
2019-06-27T11:11:35.725Z,29.65
2019-06-27T11:12:35.695Z,29.86
2019-06-27T11:13:35.698Z,30.30
2019-06-27T11:14:35.741Z,30.37
2019-06-27T11:15:35.661Z,29.95
2019-06-27T11:16:35.654Z,29.66
2019-06-27T11:17:35.683Z,29.90
2019-06-27T11:18:35.639Z,29.95
2019-06-27T11:19:51.194Z,30.08
2019-06-27T11:20:36.660Z,29.88
2019-06-27T11:21:35.687Z,29.81
2019-06-27T11:22:35.604Z,29.75
2019-06-27T11:23:35.601Z,29.79
2019-06-27T11:24:35.558Z,29.76
2019-06-27T11:25:35.554Z,29.61
2019-06-27T11:26:35.554Z,29.79
2019-06-27T11:27:35.572Z,29.91
2019-06-27T11:28:35.524Z,30.15
2019-06-27T11:29:35.528Z,30.09
2019-06-27T11:30:35.497Z,30.16
2019-06-27T11:31:35.512Z,30.31
2019-06-27T11:32:35.514Z,30.28
2019-06-27T11:33:35.474Z,30.09
2019-06-27T11:34:35.470Z,30.03
2019-06-27T11:35:35.499Z,30.02
2019-06-27T11:36:35.469Z,29.72
2019-06-27T11:37:35.455Z,29.50
2019-06-27T11:38:35.436Z,29.32
2019-06-27T11:39:35.445Z,29.27
2019-06-27T11:40:35.415Z,29.12
2019-06-27T11:41:35.449Z,29.01
2019-06-27T11:42:35.410Z,29.20
2019-06-27T11:43:35.379Z,29.61
2019-06-27T11:44:35.388Z,29.78
2019-06-27T11:45:35.342Z,29.84
2019-06-27T11:46:35.360Z,29.81
2019-06-27T11:47:35.379Z,29.73
2019-06-27T11:48:35.338Z,29.84
2019-06-27T11:49:35.339Z,30.00
2019-06-27T11:50:35.328Z,29.95
2019-06-27T11:51:35.374Z,29.97
2019-06-27T11:52:35.282Z,30.15
2019-06-27T11:53:35.279Z,30.10
2019-06-27T11:54:35.303Z,30.25
2019-06-27T11:55:35.239Z,30.31
2019-06-27T11:56:35.243Z,29.98
2019-06-27T11:57:35.279Z,30.12
2019-06-27T11:58:35.211Z,30.24
2019-06-27T11:59:35.221Z,30.10
2019-06-27T12:00:35.234Z,29.88
2019-06-27T12:01:35.273Z,29.94
2019-06-27T12:02:35.207Z,29.93
2019-06-27T12:03:48.439Z,30.18
2019-06-27T12:04:36.157Z,30.53
2019-06-27T12:05:35.134Z,30.81
2019-06-27T12:06:35.118Z,30.61
2019-06-27T12:07:35.130Z,30.66
2019-06-27T12:08:35.104Z,30.78
2019-06-27T12:09:35.156Z,30.72
2019-06-27T12:10:35.102Z,30.80
2019-06-27T12:11:35.082Z,30.99
2019-06-27T12:12:35.089Z,31.20
2019-06-27T12:13:35.186Z,31.39
2019-06-27T12:14:35.048Z,31.62
2019-06-27T12:15:35.035Z,31.70
2019-06-27T12:16:35.026Z,31.17
2019-06-27T12:17:35.018Z,30.83
2019-06-27T12:18:35.047Z,30.51
2019-06-27T12:19:35.017Z,30.39
2019-06-27T12:20:34.986Z,30.44
2019-06-27T12:21:34.978Z,30.25
2019-06-27T12:22:34.956Z,30.65
2019-06-27T12:23:34.957Z,30.83
2019-06-27T12:24:34.943Z,30.99
2019-06-27T12:25:35.009Z,30.91
2019-06-27T12:26:34.921Z,30.81
2019-06-27T12:27:34.928Z,30.96
2019-06-27T12:28:34.911Z,30.87
2019-06-27T12:29:34.890Z,30.90
2019-06-27T12:30:34.886Z,31.10
2019-06-27T12:31:34.864Z,31.07
2019-06-27T12:32:50.319Z,30.90
2019-06-27T12:33:35.866Z,30.70
2019-06-27T12:34:34.838Z,30.59
2019-06-27T12:35:34.849Z,30.48
2019-06-27T12:36:34.819Z,30.37
2019-06-27T12:37:34.808Z,30.12
2019-06-27T12:38:34.795Z,30.03
2019-06-27T12:39:34.869Z,29.69
2019-06-27T12:40:34.791Z,29.41
2019-06-27T12:41:34.765Z,28.74
2019-06-27T12:42:34.768Z,28.33
2019-06-27T12:43:34.787Z,27.86
2019-06-27T12:44:34.731Z,27.60
2019-06-27T12:45:34.759Z,27.17
2019-06-27T12:46:34.771Z,26.92
2019-06-27T12:47:34.703Z,26.66
2019-06-27T12:48:37.011Z,26.60
2019-06-27T12:49:56.668Z,26.65
2019-06-27T12:50:35.675Z,26.68
2019-06-27T12:51:34.711Z,26.56
2019-06-27T12:52:34.728Z,26.53